sensor_id;sensor_type;location;lat;lon;timestamp;pressure;altitude;pressure_sealevel;temperature;humidity
10668;BME280;5382;42.136;24.796;2024-01-30T00:01:58;102165.84;;;2.13;100.00
10668;BME280;5382;42.136;24.796;2024-01-30T00:04:25;102164.13;;;2.11;100.00
10668;BME280;5382;42.136;24.796;2024-01-30T00:06:52;102164.13;;;2.23;100.00
10668;BME280;5382;42.136;24.796;2024-01-30T00:09:20;102161.50;;;2.14;100.00
10668;BME280;5382;42.136;24.796;2024-01-30T00:11:47;102159.75;;;2.19;100.00
10668;BME280;5382;42.136;24.796;2024-01-30T00:14:14;102171.09;;;2.07;100.00
10668;BME280;5382;42.136;24.796;2024-01-30T00:16:41;102164.97;;;2.04;100.00
10668;BME280;5382;42.136;24.796;2024-01-30T00:19:08;102168.47;;;2.13;100.00
10668;BME280;5382;42.136;24.796;2024-01-30T00:21:35;102164.97;;;2.31;100.00
10668;BME280;5382;42.136;24.796;2024-01-30T00:24:02;102166.72;;;2.28;100.00
10668;BME280;5382;42.136;24.796;2024-01-30T00:26:31;102167.59;;;2.33;100.00
10668;BME280;5382;42.136;24.796;2024-01-30T00:28:58;102164.97;;;2.36;100.00
10668;BME280;5382;42.136;24.796;2024-01-30T00:31:25;102178.00;;;2.50;100.00
10668;BME280;5382;42.136;24.796;2024-01-30T00:33:52;102164.97;;;2.44;100.00
10668;BME280;5382;42.136;24.796;2024-01-30T00:36:19;102165.84;;;2.46;100.00
10668;BME280;5382;42.136;24.796;2024-01-30T00:38:46;102166.69;;;2.37;100.00
10668;BME280;5382;42.136;24.796;2024-01-30T00:41:13;102165.84;;;2.41;100.00
10668;BME280;5382;42.136;24.796;2024-01-30T00:43:43;102147.59;;;2.12;100.00
10668;BME280;5382;42.136;24.796;2024-01-30T00:46:10;102169.31;;;2.37;100.00
10668;BME280;5382;42.136;24.796;2024-01-30T00:48:36;102166.75;;;2.17;100.00
10668;BME280;5382;42.136;24.796;2024-01-30T00:51:04;102170.22;;;2.13;100.00
10668;BME280;5382;42.136;24.796;2024-01-30T00:53:31;102172.81;;;2.19;100.00
10668;BME280;5382;42.136;24.796;2024-01-30T00:55:58;102173.69;;;2.06;100.00
10668;BME280;5382;42.136;24.796;2024-01-30T00:58:24;102161.50;;;2.06;100.00
10668;BME280;5382;42.136;24.796;2024-01-30T01:00:53;102156.28;;;2.12;100.00
10668;BME280;5382;42.136;24.796;2024-01-30T01:03:20;102169.34;;;2.20;100.00
10668;BME280;5382;42.136;24.796;2024-01-30T01:05:47;102160.63;;;2.10;100.00
10668;BME280;5382;42.136;24.796;2024-01-30T01:08:13;102119.72;;;1.83;100.00
10668;BME280;5382;42.136;24.796;2024-01-30T01:10:41;102153.69;;;2.00;100.00
10668;BME280;5382;42.136;24.796;2024-01-30T01:13:08;102167.59;;;2.04;100.00
10668;BME280;5382;42.136;24.796;2024-01-30T01:15:35;102159.75;;;2.04;100.00
10668;BME280;5382;42.136;24.796;2024-01-30T01:18:04;102161.50;;;2.08;100.00
10668;BME280;5382;42.136;24.796;2024-01-30T01:20:31;102156.28;;;2.18;100.00
10668;BME280;5382;42.136;24.796;2024-01-30T01:22:58;102155.44;;;2.12;100.00
10668;BME280;5382;42.136;24.796;2024-01-30T01:25:25;102151.91;;;2.16;100.00
10668;BME280;5382;42.136;24.796;2024-01-30T01:27:52;102144.97;;;2.12;100.00
10668;BME280;5382;42.136;24.796;2024-01-30T01:30:19;102142.34;;;2.10;100.00
10668;BME280;5382;42.136;24.796;2024-01-30T01:32:48;102143.22;;;2.11;100.00
10668;BME280;5382;42.136;24.796;2024-01-30T01:35:23;102140.59;;;2.11;100.00
10668;BME280;5382;42.136;24.796;2024-01-30T01:37:51;102138.00;;;2.08;100.00
10668;BME280;5382;42.136;24.796;2024-01-30T01:40:22;102146.69;;;2.13;100.00
10668;BME280;5382;42.136;24.796;2024-01-30T01:42:50;102144.09;;;2.07;100.00
10668;BME280;5382;42.136;24.796;2024-01-30T01:45:17;102118.88;;;1.89;100.00
10668;BME280;5382;42.136;24.796;2024-01-30T01:47:47;102139.75;;;1.98;100.00
10668;BME280;5382;42.136;24.796;2024-01-30T01:50:16;102138.03;;;1.94;100.00
10668;BME280;5382;42.136;24.796;2024-01-30T01:52:47;102149.31;;;1.88;100.00
10668;BME280;5382;42.136;24.796;2024-01-30T01:55:15;102132.78;;;1.68;100.00
10668;BME280;5382;42.136;24.796;2024-01-30T01:57:43;102146.69;;;1.64;100.00
10668;BME280;5382;42.136;24.796;2024-01-30T02:00:11;102147.53;;;1.57;100.00
10668;BME280;5382;42.136;24.796;2024-01-30T02:02:39;102141.44;;;1.47;100.00
10668;BME280;5382;42.136;24.796;2024-01-30T02:05:07;102097.03;;;1.13;100.00
10668;BME280;5382;42.136;24.796;2024-01-30T02:07:34;102156.16;;;1.26;100.00
10668;BME280;5382;42.136;24.796;2024-01-30T02:10:04;102143.97;;;1.10;100.00
10668;BME280;5382;42.136;24.796;2024-01-30T02:12:31;102151.78;;;1.13;100.00
10668;BME280;5382;42.136;24.796;2024-01-30T02:14:58;102154.41;;;1.08;100.00
10668;BME280;5382;42.136;24.796;2024-01-30T02:17:25;102158.75;;;1.19;100.00
10668;BME280;5382;42.136;24.796;2024-01-30T02:19:52;102156.97;;;1.01;100.00
10668;BME280;5382;42.136;24.796;2024-01-30T02:22:21;102168.13;;;0.74;100.00
10668;BME280;5382;42.136;24.796;2024-01-30T02:24:49;102162.97;;;0.86;100.00
10668;BME280;5382;42.136;24.796;2024-01-30T02:27:16;102160.28;;;0.68;100.00
10668;BME280;5382;42.136;24.796;2024-01-30T02:29:42;102156.81;;;0.69;100.00
10668;BME280;5382;42.136;24.796;2024-01-30T02:32:09;102168.97;;;0.70;100.00
10668;BME280;5382;42.136;24.796;2024-01-30T02:34:36;102166.44;;;0.82;100.00
10668;BME280;5382;42.136;24.796;2024-01-30T02:37:03;102173.34;;;0.77;100.00
10668;BME280;5382;42.136;24.796;2024-01-30T02:39:32;102175.97;;;0.75;100.00
10668;BME280;5382;42.136;24.796;2024-01-30T02:41:59;102179.38;;;0.70;100.00
10668;BME280;5382;42.136;24.796;2024-01-30T02:44:26;102172.44;;;0.69;100.00
10668;BME280;5382;42.136;24.796;2024-01-30T02:46:53;102176.78;;;0.68;100.00
10668;BME280;5382;42.136;24.796;2024-01-30T02:49:20;102176.72;;;0.62;100.00
10668;BME280;5382;42.136;24.796;2024-01-30T02:51:47;102180.19;;;0.56;100.00
10668;BME280;5382;42.136;24.796;2024-01-30T02:54:14;102173.22;;;0.52;100.00
10668;BME280;5382;42.136;24.796;2024-01-30T02:56:42;102126.16;;;0.21;100.00
10668;BME280;5382;42.136;24.796;2024-01-30T02:59:09;102172.34;;;0.56;100.00
10668;BME280;5382;42.136;24.796;2024-01-30T03:01:42;102177.63;;;0.62;100.00
10668;BME280;5382;42.136;24.796;2024-01-30T03:04:09;102182.84;;;0.67;100.00
10668;BME280;5382;42.136;24.796;2024-01-30T03:06:37;102179.41;;;0.74;100.00
10668;BME280;5382;42.136;24.796;2024-01-30T03:09:04;102182.88;;;0.69;100.00
10668;BME280;5382;42.136;24.796;2024-01-30T03:11:31;102177.72;;;0.81;100.00
10668;BME280;5382;42.136;24.796;2024-01-30T03:13:59;102193.38;;;0.81;100.00
10668;BME280;5382;42.136;24.796;2024-01-30T03:16:26;102186.38;;;0.80;100.00
10668;BME280;5382;42.136;24.796;2024-01-30T03:18:53;102184.66;;;0.82;100.00
10668;BME280;5382;42.136;24.796;2024-01-30T03:21:20;102182.13;;;0.88;100.00
10668;BME280;5382;42.136;24.796;2024-01-30T03:23:47;102177.75;;;0.90;100.00
10668;BME280;5382;42.136;24.796;2024-01-30T03:26:14;102171.72;;;0.99;100.00
10668;BME280;5382;42.136;24.796;2024-01-30T03:28:41;102165.66;;;1.03;100.00
10668;BME280;5382;42.136;24.796;2024-01-30T03:31:09;102167.41;;;1.05;100.00
10668;BME280;5382;42.136;24.796;2024-01-30T03:33:36;102169.09;;;0.94;100.00
10668;BME280;5382;42.136;24.796;2024-01-30T03:36:05;102168.19;;;0.87;100.00
10668;BME280;5382;42.136;24.796;2024-01-30T03:38:32;102174.25;;;0.85;100.00
10668;BME280;5382;42.136;24.796;2024-01-30T03:40:59;102180.38;;;0.85;100.00
10668;BME280;5382;42.136;24.796;2024-01-30T03:43:26;102173.44;;;0.91;100.00
10668;BME280;5382;42.136;24.796;2024-01-30T03:45:53;102169.94;;;0.92;100.00
10668;BME280;5382;42.136;24.796;2024-01-30T03:48:22;102172.50;;;0.78;100.00
10668;BME280;5382;42.136;24.796;2024-01-30T03:50:48;102166.44;;;0.86;100.00
10668;BME280;5382;42.136;24.796;2024-01-30T03:53:15;102168.22;;;0.94;100.00
10668;BME280;5382;42.136;24.796;2024-01-30T03:56:01;102163.94;;;1.06;100.00
10668;BME280;5382;42.136;24.796;2024-01-30T03:58:28;102170.03;;;1.08;100.00
10668;BME280;5382;42.136;24.796;2024-01-30T04:00:55;102163.09;;;1.09;100.00
10668;BME280;5382;42.136;24.796;2024-01-30T04:03:23;102167.44;;;1.21;100.00
10668;BME280;5382;42.136;24.796;2024-01-30T04:05:51;102163.09;;;1.21;100.00
10668;BME280;5382;42.136;24.796;2024-01-30T04:08:18;102172.63;;;1.13;100.00
10668;BME280;5382;42.136;24.796;2024-01-30T04:10:46;102169.16;;;1.13;100.00
10668;BME280;5382;42.136;24.796;2024-01-30T04:13:13;102148.19;;;0.85;100.00
10668;BME280;5382;42.136;24.796;2024-01-30T04:15:40;102172.63;;;1.07;100.00
10668;BME280;5382;42.136;24.796;2024-01-30T04:18:07;102167.31;;;0.90;100.00
10668;BME280;5382;42.136;24.796;2024-01-30T04:20:35;102174.31;;;0.91;100.00
10668;BME280;5382;42.136;24.796;2024-01-30T04:23:02;102166.47;;;0.93;100.00
10668;BME280;5382;42.136;24.796;2024-01-30T04:25:29;102178.50;;;0.69;100.00
10668;BME280;5382;42.136;24.796;2024-01-30T04:27:56;102181.09;;;0.63;100.00
10668;BME280;5382;42.136;24.796;2024-01-30T04:30:23;102177.66;;;0.72;100.00
10668;BME280;5382;42.136;24.796;2024-01-30T04:32:50;102178.50;;;0.69;100.00
10668;BME280;5382;42.136;24.796;2024-01-30T04:35:17;102180.28;;;0.72;100.00
10668;BME280;5382;42.136;24.796;2024-01-30T04:37:47;102179.44;;;0.73;100.00
10668;BME280;5382;42.136;24.796;2024-01-30T04:40:14;102182.00;;;0.71;100.00
10668;BME280;5382;42.136;24.796;2024-01-30T04:42:41;102180.28;;;0.70;100.00
10668;BME280;5382;42.136;24.796;2024-01-30T04:45:09;102196.72;;;0.61;100.00
10668;BME280;5382;42.136;24.796;2024-01-30T04:47:36;102204.53;;;0.63;100.00
10668;BME280;5382;42.136;24.796;2024-01-30T04:50:03;102194.16;;;0.68;100.00
10668;BME280;5382;42.136;24.796;2024-01-30T04:52:31;102200.19;;;0.63;100.00
10668;BME280;5382;42.136;24.796;2024-01-30T04:54:59;102203.63;;;0.59;100.00
10668;BME280;5382;42.136;24.796;2024-01-30T04:57:26;102209.69;;;0.54;100.00
10668;BME280;5382;42.136;24.796;2024-01-30T04:59:53;102207.03;;;0.41;100.00
10668;BME280;5382;42.136;24.796;2024-01-30T05:02:20;102214.84;;;0.46;100.00
10668;BME280;5382;42.136;24.796;2024-01-30T05:04:47;102202.69;;;0.48;100.00
10668;BME280;5382;42.136;24.796;2024-01-30T05:07:14;102210.53;;;0.51;100.00
10668;BME280;5382;42.136;24.796;2024-01-30T05:09:41;102212.31;;;0.55;100.00
10668;BME280;5382;42.136;24.796;2024-01-30T05:12:09;102212.34;;;0.64;100.00
10668;BME280;5382;42.136;24.796;2024-01-30T05:14:36;102217.69;;;0.81;100.00
10668;BME280;5382;42.136;24.796;2024-01-30T05:17:03;102205.53;;;0.85;100.00
10668;BME280;5382;42.136;24.796;2024-01-30T05:19:30;102203.72;;;0.72;100.00
10668;BME280;5382;42.136;24.796;2024-01-30T05:21:57;102202.06;;;0.86;100.00
10668;BME280;5382;42.136;24.796;2024-01-30T05:24:24;102206.44;;;0.89;100.00
10668;BME280;5382;42.136;24.796;2024-01-30T05:26:51;102209.97;;;1.00;100.00
10668;BME280;5382;42.136;24.796;2024-01-30T05:29:20;102203.03;;;1.03;100.00
10668;BME280;5382;42.136;24.796;2024-01-30T05:31:47;102122.03;;;0.57;100.00
10668;BME280;5382;42.136;24.796;2024-01-30T05:34:14;102201.28;;;1.02;100.00
10668;BME280;5382;42.136;24.796;2024-01-30T05:36:41;102199.59;;;1.06;100.00
10668;BME280;5382;42.136;24.796;2024-01-30T05:39:08;102209.19;;;1.16;100.00
10668;BME280;5382;42.136;24.796;2024-01-30T05:41:35;102215.28;;;1.29;100.00
10668;BME280;5382;42.136;24.796;2024-01-30T05:44:02;102215.28;;;1.24;100.00
10668;BME280;5382;42.136;24.796;2024-01-30T05:46:31;102205.72;;;1.22;100.00
10668;BME280;5382;42.136;24.796;2024-01-30T05:48:58;102205.72;;;1.28;100.00
10668;BME280;5382;42.136;24.796;2024-01-30T05:51:25;102204.81;;;1.14;100.00
10668;BME280;5382;42.136;24.796;2024-01-30T05:53:53;102190.88;;;1.07;100.00
10668;BME280;5382;42.136;24.796;2024-01-30T05:56:20;102214.41;;;1.22;100.00
10668;BME280;5382;42.136;24.796;2024-01-30T05:58:47;102210.06;;;1.17;100.00
10668;BME280;5382;42.136;24.796;2024-01-30T06:01:15;102203.13;;;1.22;100.00
10668;BME280;5382;42.136;24.796;2024-01-30T06:03:44;102217.91;;;1.27;100.00
10668;BME280;5382;42.136;24.796;2024-01-30T06:06:11;102211.84;;;1.30;100.00
10668;BME280;5382;42.136;24.796;2024-01-30T06:08:37;102219.69;;;1.39;100.00
10668;BME280;5382;42.136;24.796;2024-01-30T06:11:04;102217.97;;;1.46;100.00
10668;BME280;5382;42.136;24.796;2024-01-30T06:13:31;102214.53;;;1.53;100.00
10668;BME280;5382;42.136;24.796;2024-01-30T06:15:59;102219.75;;;1.64;100.00
10668;BME280;5382;42.136;24.796;2024-01-30T06:18:26;102220.63;;;1.55;100.00
10668;BME280;5382;42.136;24.796;2024-01-30T06:20:57;102218.00;;;1.55;100.00
10668;BME280;5382;42.136;24.796;2024-01-30T06:23:24;102210.19;;;1.55;100.00
10668;BME280;5382;42.136;24.796;2024-01-30T06:25:51;102218.91;;;1.68;100.00
10668;BME280;5382;42.136;24.796;2024-01-30T06:28:18;102220.66;;;1.75;100.00
10668;BME280;5382;42.136;24.796;2024-01-30T06:30:45;102226.72;;;1.69;100.00
10668;BME280;5382;42.136;24.796;2024-01-30T06:33:12;102225.88;;;1.78;100.00
10668;BME280;5382;42.136;24.796;2024-01-30T06:35:40;102220.66;;;1.75;100.00
10668;BME280;5382;42.136;24.796;2024-01-30T06:38:08;102213.69;;;1.80;100.00
10668;BME280;5382;42.136;24.796;2024-01-30T06:40:35;102217.16;;;1.74;100.00
10668;BME280;5382;42.136;24.796;2024-01-30T06:43:03;102219.78;;;1.82;100.00
10668;BME280;5382;42.136;24.796;2024-01-30T06:45:30;102227.63;;;1.79;100.00
10668;BME280;5382;42.136;24.796;2024-01-30T06:47:57;102235.47;;;1.84;100.00
10668;BME280;5382;42.136;24.796;2024-01-30T06:50:24;102231.97;;;1.77;100.00
10668;BME280;5382;42.136;24.796;2024-01-30T06:52:51;102223.28;;;1.77;100.00
10668;BME280;5382;42.136;24.796;2024-01-30T06:55:20;102218.03;;;1.75;100.00
10668;BME280;5382;42.136;24.796;2024-01-30T06:57:47;102225.91;;;1.89;100.00
10668;BME280;5382;42.136;24.796;2024-01-30T07:00:15;102238.94;;;1.90;100.00
10668;BME280;5382;42.136;24.796;2024-01-30T07:02:42;102228.53;;;1.89;100.00
10668;BME280;5382;42.136;24.796;2024-01-30T07:05:09;102237.25;;;2.02;100.00
10668;BME280;5382;42.136;24.796;2024-01-30T07:07:36;102235.50;;;2.05;100.00
10668;BME280;5382;42.136;24.796;2024-01-30T07:10:04;102227.69;;;2.07;100.00
10668;BME280;5382;42.136;24.796;2024-01-30T07:12:33;102231.13;;;2.03;100.00
10668;BME280;5382;42.136;24.796;2024-01-30T07:15:00;102230.25;;;2.01;100.00
10668;BME280;5382;42.136;24.796;2024-01-30T07:17:28;102227.66;;;2.01;100.00
10668;BME280;5382;42.136;24.796;2024-01-30T07:19:55;102228.53;;;2.00;100.00
10668;BME280;5382;42.136;24.796;2024-01-30T07:22:22;102229.38;;;2.06;100.00
10668;BME280;5382;42.136;24.796;2024-01-30T07:24:49;102240.72;;;2.08;100.00
10668;BME280;5382;42.136;24.796;2024-01-30T07:27:17;102238.13;;;2.16;100.00
10668;BME280;5382;42.136;24.796;2024-01-30T07:29:45;102233.78;;;2.12;100.00
10668;BME280;5382;42.136;24.796;2024-01-30T07:32:12;102239.00;;;2.15;100.00
10668;BME280;5382;42.136;24.796;2024-01-30T07:34:39;102234.63;;;2.23;100.00
10668;BME280;5382;42.136;24.796;2024-01-30T07:37:06;102238.97;;;2.39;100.00
10668;BME280;5382;42.136;24.796;2024-01-30T07:39:34;102250.31;;;2.42;100.00
10668;BME280;5382;42.136;24.796;2024-01-30T07:42:01;102239.84;;;2.45;100.00
10668;BME280;5382;42.136;24.796;2024-01-30T07:44:28;102243.31;;;2.57;100.00
10668;BME280;5382;42.136;24.796;2024-01-30T07:46:56;102246.81;;;2.44;100.00
10668;BME280;5382;42.136;24.796;2024-01-30T07:49:25;102241.63;;;2.46;100.00
10668;BME280;5382;42.136;24.796;2024-01-30T07:51:52;102237.25;;;2.51;100.00
10668;BME280;5382;42.136;24.796;2024-01-30T07:54:18;102225.91;;;2.56;100.00
10668;BME280;5382;42.136;24.796;2024-01-30T07:56:46;102239.84;;;2.61;100.00
10668;BME280;5382;42.136;24.796;2024-01-30T07:59:13;102240.72;;;2.54;100.00
10668;BME280;5382;42.136;24.796;2024-01-30T08:01:39;102235.50;;;2.59;100.00
10668;BME280;5382;42.136;24.796;2024-01-30T08:04:08;102241.56;;;2.70;100.00
10668;BME280;5382;42.136;24.796;2024-01-30T08:06:35;102250.28;;;2.72;100.00
10668;BME280;5382;42.136;24.796;2024-01-30T08:09:02;102238.09;;;2.70;100.00
10668;BME280;5382;42.136;24.796;2024-01-30T08:11:30;102236.34;;;2.73;100.00
10668;BME280;5382;42.136;24.796;2024-01-30T08:13:57;102242.44;;;2.72;100.00
10668;BME280;5382;42.136;24.796;2024-01-30T08:16:24;102231.97;;;2.84;100.00
10668;BME280;5382;42.136;24.796;2024-01-30T08:18:51;102226.69;;;2.97;100.00
10668;BME280;5382;42.136;24.796;2024-01-30T08:21:22;102229.31;;;3.00;100.00
10668;BME280;5382;42.136;24.796;2024-01-30T08:23:49;102222.31;;;2.99;100.00
10668;BME280;5382;42.136;24.796;2024-01-30T08:26:16;102237.09;;;3.12;100.00
10668;BME280;5382;42.136;24.796;2024-01-30T08:28:43;102230.09;;;3.17;100.00
10668;BME280;5382;42.136;24.796;2024-01-30T08:31:10;102230.94;;;3.32;100.00
10668;BME280;5382;42.136;24.796;2024-01-30T08:33:38;102230.91;;;3.35;100.00
10668;BME280;5382;42.136;24.796;2024-01-30T08:36:05;102230.06;;;3.33;100.00
10668;BME280;5382;42.136;24.796;2024-01-30T08:38:33;102243.16;;;3.30;100.00
10668;BME280;5382;42.136;24.796;2024-01-30T08:41:00;102230.94;;;3.32;100.00
10668;BME280;5382;42.136;24.796;2024-01-30T08:43:28;102239.69;;;3.31;99.24
10668;BME280;5382;42.136;24.796;2024-01-30T08:45:55;102228.34;;;3.25;100.00
10668;BME280;5382;42.136;24.796;2024-01-30T08:48:22;102228.25;;;3.42;99.05
10668;BME280;5382;42.136;24.796;2024-01-30T08:50:50;102223.03;;;3.47;97.36
10668;BME280;5382;42.136;24.796;2024-01-30T08:53:17;102230.94;;;3.36;99.12
10668;BME280;5382;42.136;24.796;2024-01-30T08:55:45;102230.97;;;3.25;99.29
10668;BME280;5382;42.136;24.796;2024-01-30T08:58:12;102230.97;;;3.28;98.61
10668;BME280;5382;42.136;24.796;2024-01-30T09:00:40;102234.44;;;3.31;98.85
10668;BME280;5382;42.136;24.796;2024-01-30T09:03:07;102233.56;;;3.22;99.93
10668;BME280;5382;42.136;24.796;2024-01-30T09:05:34;102231.69;;;3.58;100.00
10668;BME280;5382;42.136;24.796;2024-01-30T09:08:01;102231.69;;;3.58;100.00
10668;BME280;5382;42.136;24.796;2024-01-30T09:10:28;102236.97;;;3.47;94.12
10668;BME280;5382;42.136;24.796;2024-01-30T09:12:56;102224.75;;;3.48;96.02
10668;BME280;5382;42.136;24.796;2024-01-30T09:15:23;102220.28;;;3.64;93.84
10668;BME280;5382;42.136;24.796;2024-01-30T09:17:51;102222.81;;;3.81;100.00
10668;BME280;5382;42.136;24.796;2024-01-30T09:20:18;102227.91;;;4.02;98.81
10668;BME280;5382;42.136;24.796;2024-01-30T09:22:47;102221.00;;;3.93;90.65
10668;BME280;5382;42.136;24.796;2024-01-30T09:25:14;102218.47;;;3.77;87.68
10668;BME280;5382;42.136;24.796;2024-01-30T09:27:41;102221.03;;;3.86;93.82
10668;BME280;5382;42.136;24.796;2024-01-30T09:30:10;102210.47;;;4.01;93.42
10668;BME280;5382;42.136;24.796;2024-01-30T09:32:39;102204.28;;;4.11;88.19
10668;BME280;5382;42.136;24.796;2024-01-30T09:35:07;102213.03;;;4.09;85.03
10668;BME280;5382;42.136;24.796;2024-01-30T09:37:34;102146.88;;;3.81;84.77
10668;BME280;5382;42.136;24.796;2024-01-30T09:40:01;102187.75;;;4.03;84.16
10668;BME280;5382;42.136;24.796;2024-01-30T09:42:33;102191.91;;;4.29;84.25
10668;BME280;5382;42.136;24.796;2024-01-30T09:45:01;102183.28;;;4.16;83.32
10668;BME280;5382;42.136;24.796;2024-01-30T09:47:31;102190.25;;;4.17;82.75
10668;BME280;5382;42.136;24.796;2024-01-30T09:49:58;102187.53;;;4.29;82.61
10668;BME280;5382;42.136;24.796;2024-01-30T09:52:25;102186.63;;;4.30;82.26
10668;BME280;5382;42.136;24.796;2024-01-30T09:54:53;102190.97;;;4.33;81.42
10668;BME280;5382;42.136;24.796;2024-01-30T09:57:20;102184.03;;;4.29;82.03
10668;BME280;5382;42.136;24.796;2024-01-30T09:59:47;102177.75;;;4.45;81.28
10668;BME280;5382;42.136;24.796;2024-01-30T10:02:18;102181.25;;;4.47;79.66
10668;BME280;5382;42.136;24.796;2024-01-30T10:04:48;102181.13;;;4.56;79.37
10668;BME280;5382;42.136;24.796;2024-01-30T10:07:15;102181.94;;;4.63;78.93
10668;BME280;5382;42.136;24.796;2024-01-30T10:09:42;102178.38;;;4.69;77.60
10668;BME280;5382;42.136;24.796;2024-01-30T10:12:09;102173.41;;;4.44;77.71
10668;BME280;5382;42.136;24.796;2024-01-30T10:14:38;102180.22;;;4.62;77.77
10668;BME280;5382;42.136;24.796;2024-01-30T10:17:06;102174.94;;;4.64;76.76
10668;BME280;5382;42.136;24.796;2024-01-30T10:19:33;102175.75;;;4.70;76.55
10668;BME280;5382;42.136;24.796;2024-01-30T10:22:02;102176.59;;;4.75;75.99
10668;BME280;5382;42.136;24.796;2024-01-30T10:24:30;102178.44;;;4.66;76.41
10668;BME280;5382;42.136;24.796;2024-01-30T10:26:57;102174.78;;;4.77;77.18
10668;BME280;5382;42.136;24.796;2024-01-30T10:29:24;102174.69;;;4.85;77.04
10668;BME280;5382;42.136;24.796;2024-01-30T10:31:58;102169.28;;;5.00;76.36
10668;BME280;5382;42.136;24.796;2024-01-30T10:34:27;102164.06;;;4.97;75.64
10668;BME280;5382;42.136;24.796;2024-01-30T10:36:59;102165.53;;;5.20;74.82
10668;BME280;5382;42.136;24.796;2024-01-30T10:39:30;102173.06;;;5.44;73.58
10668;BME280;5382;42.136;24.796;2024-01-30T10:42:03;102157.19;;;5.54;72.85
10668;BME280;5382;42.136;24.796;2024-01-30T10:44:36;102166.72;;;5.61;72.46
10668;BME280;5382;42.136;24.796;2024-01-30T10:47:06;102169.72;;;5.94;73.00
10668;BME280;5382;42.136;24.796;2024-01-30T10:49:36;102162.38;;;6.14;72.32
10668;BME280;5382;42.136;24.796;2024-01-30T10:52:05;102154.34;;;6.25;71.14
10668;BME280;5382;42.136;24.796;2024-01-30T10:54:35;102135.97;;;6.22;73.75
10668;BME280;5382;42.136;24.796;2024-01-30T10:57:03;102149.41;;;6.56;79.96
10668;BME280;5382;42.136;24.796;2024-01-30T10:59:31;102152.13;;;6.50;67.67
10668;BME280;5382;42.136;24.796;2024-01-30T11:01:59;102142.22;;;6.63;66.79
10668;BME280;5382;42.136;24.796;2024-01-30T11:04:27;102143.09;;;6.63;67.88
10668;BME280;5382;42.136;24.796;2024-01-30T11:06:54;102147.13;;;6.81;65.97
10668;BME280;5382;42.136;24.796;2024-01-30T11:09:21;102140.97;;;6.82;65.72
10668;BME280;5382;42.136;24.796;2024-01-30T11:11:50;102135.66;;;6.85;67.09
10668;BME280;5382;42.136;24.796;2024-01-30T11:14:23;102126.97;;;7.22;66.56
10668;BME280;5382;42.136;24.796;2024-01-30T11:16:50;102125.69;;;7.40;64.02
10668;BME280;5382;42.136;24.796;2024-01-30T11:19:23;102128.66;;;7.26;63.21
10668;BME280;5382;42.136;24.796;2024-01-30T11:21:52;102123.56;;;7.56;62.51
10668;BME280;5382;42.136;24.796;2024-01-30T11:24:20;102122.94;;;8.50;60.78
10668;BME280;5382;42.136;24.796;2024-01-30T11:26:55;102116.72;;;9.42;57.46
10668;BME280;5382;42.136;24.796;2024-01-30T11:29:24;102098.69;;;10.08;53.84
10668;BME280;5382;42.136;24.796;2024-01-30T11:31:52;102103.94;;;9.83;54.26
10668;BME280;5382;42.136;24.796;2024-01-30T11:34:20;102092.72;;;9.22;53.73
10668;BME280;5382;42.136;24.796;2024-01-30T11:36:52;102095.06;;;8.73;55.26
10668;BME280;5382;42.136;24.796;2024-01-30T11:39:25;102091.81;;;7.98;56.71
10668;BME280;5382;42.136;24.796;2024-01-30T11:41:54;102091.88;;;7.59;57.14
10668;BME280;5382;42.136;24.796;2024-01-30T11:44:21;102091.19;;;7.13;58.43
10668;BME280;5382;42.136;24.796;2024-01-30T11:46:49;102093.13;;;7.44;58.86
10668;BME280;5382;42.136;24.796;2024-01-30T11:49:18;102079.13;;;8.76;57.17
10668;BME280;5382;42.136;24.796;2024-01-30T11:51:45;102061.34;;;10.17;52.06
10668;BME280;5382;42.136;24.796;2024-01-30T11:54:14;102083.41;;;10.90;48.88
10668;BME280;5382;42.136;24.796;2024-01-30T11:56:42;102065.59;;;11.39;47.61
10668;BME280;5382;42.136;24.796;2024-01-30T11:59:11;102053.38;;;11.57;46.86
10668;BME280;5382;42.136;24.796;2024-01-30T12:01:38;102051.88;;;12.13;46.98
10668;BME280;5382;42.136;24.796;2024-01-30T12:04:05;102052.53;;;12.18;45.88
10668;BME280;5382;42.136;24.796;2024-01-30T12:06:34;102046.94;;;11.41;46.47
10668;BME280;5382;42.136;24.796;2024-01-30T12:09:02;102055.63;;;11.88;45.76
10668;BME280;5382;42.136;24.796;2024-01-30T12:11:30;102042.88;;;12.17;44.71
10668;BME280;5382;42.136;24.796;2024-01-30T12:13:57;102044.25;;;12.65;43.30
10668;BME280;5382;42.136;24.796;2024-01-30T12:16:26;102036.75;;;13.11;43.10
10668;BME280;5382;42.136;24.796;2024-01-30T12:18:59;102030.41;;;13.14;42.27
10668;BME280;5382;42.136;24.796;2024-01-30T12:21:27;102030.28;;;12.98;41.67
10668;BME280;5382;42.136;24.796;2024-01-30T12:23:56;102011.59;;;13.72;41.40
10668;BME280;5382;42.136;24.796;2024-01-30T12:26:26;102018.03;;;14.18;40.24
10668;BME280;5382;42.136;24.796;2024-01-30T12:28:54;102000.03;;;14.06;40.90
10668;BME280;5382;42.136;24.796;2024-01-30T12:31:28;102003.72;;;15.02;39.60
10668;BME280;5382;42.136;24.796;2024-01-30T12:33:55;101996.25;;;14.93;39.52
10668;BME280;5382;42.136;24.796;2024-01-30T12:36:22;101995.38;;;14.76;38.30
10668;BME280;5382;42.136;24.796;2024-01-30T12:38:49;101999.41;;;13.50;39.99
10668;BME280;5382;42.136;24.796;2024-01-30T12:41:16;102006.63;;;12.55;42.26
10668;BME280;5382;42.136;24.796;2024-01-30T12:43:45;101999.19;;;12.24;42.28
10668;BME280;5382;42.136;24.796;2024-01-30T12:46:13;102011.53;;;12.25;43.09
10668;BME280;5382;42.136;24.796;2024-01-30T12:48:41;102006.56;;;12.76;43.37
10668;BME280;5382;42.136;24.796;2024-01-30T12:51:08;101995.94;;;13.83;42.21
10668;BME280;5382;42.136;24.796;2024-01-30T12:53:35;102001.09;;;13.51;41.14
10668;BME280;5382;42.136;24.796;2024-01-30T12:58:48;102007.53;;;12.35;41.72